Main page
METAR-TAF:

METAR-TAF

Airports :

Sveg Airport

Sveg, Sweden

latitude: 62-02-52N, longitude: 014-25-22E, elevation: 359 m

Current weather observation

The report was made 25 minutes ago, at 22:50 UTC
Wind 6 kt from the West/Northwest
Temperature 15°C
Humidity 94%
Pressure 1008 hPa
Visibility 10 km or more
light rain,

METAR: ESND 172250Z AUTO 30006KT 9999 -RA OVC012/// 15/14 Q1008

Time: 01:15 (23:15 UTC)


TAF: missing

Weather observations and forecasts of more than 4000 airports (METAR and TAF reports).

The available stations are represented by yellow and red dots on the map.

Hover mouse over dot to see the name of the station.

Then click to see weather observations and forecasts.

To change the map : click on the green buttons with a black cross to zoom in, on the green button with a dash to zoom out, or on the green arrows for adjacent maps.


METAR-TAF: